Time;durP1;ratioP1;P1;durP2;ratioP2;P2;SDS_P1;SDS_P2;PMS_P1;PMS_P2;Temp;Humidity;BMP_temperature;BMP_pressure;BME280_temperature;BME280_humidity;BME280_pressure;Samples;Min_cycle;Max_cycle;Signal;HPM_P1;HPM_P2
2022/12/10 00:00:54;;;;;;;;;;;-0.30;99.90;;;;;;5085638;28;19952;-70
2022/12/10 00:03:22;;;;;;;;;;;-0.30;99.90;;;;;;5085628;28;19920;-70
2022/12/10 00:05:49;;;;;;;;;;;-0.40;99.90;;;;;;5084939;28;19952;-70
2022/12/10 00:08:16;;;;;;;;;;;-0.40;99.90;;;;;;5085145;28;19924;-70
2022/12/10 00:10:42;;;;;;;;;;;-0.40;99.90;;;;;;5085070;28;19921;-70
2022/12/10 00:13:09;;;;;;;;;;;-0.40;99.90;;;;;;5085550;28;20116;-70
2022/12/10 00:15:36;;;;;;;;;;;-0.40;99.90;;;;;;5084867;28;19952;-70
2022/12/10 00:18:03;;;;;;;;;;;-0.40;99.90;;;;;;5084862;28;19921;-70
2022/12/10 00:20:31;;;;;;;;;;;-0.40;99.90;;;;;;5085305;28;20027;-70
2022/12/10 00:22:57;;;;;;;;;;;-0.40;99.90;;;;;;5085331;28;20030;-70
2022/12/10 00:25:24;;;;;;;;;;;-0.40;99.90;;;;;;5083951;28;19958;-70
2022/12/10 00:27:51;;;;;;;;;;;-0.40;99.90;;;;;;5084660;28;20168;-70
2022/12/10 00:30:17;;;;;;;;;;;-0.40;99.90;;;;;;5085192;28;20111;-70
2022/12/10 00:32:44;;;;;;;;;;;-0.40;99.90;;;;;;5085135;28;19928;-70
2022/12/10 00:35:11;;;;;;;;;;;-0.30;99.90;;;;;;5085107;28;19952;-70
2022/12/10 00:37:39;;;;;;;;;;;-0.40;99.90;;;;;;5084296;28;19927;-70
2022/12/10 00:40:06;;;;;;;;;;;-0.30;99.90;;;;;;5084873;28;19920;-70
2022/12/10 00:42:33;;;;;;;;;;;-0.30;99.90;;;;;;5084477;28;20169;-70
2022/12/10 00:45:00;;;;;;;;;;;-0.30;99.90;;;;;;5084765;28;19928;-70
2022/12/10 00:47:26;;;;;;;;;;;-0.40;99.90;;;;;;5082226;28;19955;-70
2022/12/10 00:49:53;;;;;;;;;;;-0.40;99.90;;;;;;5083771;28;19947;-70
2022/12/10 00:52:20;;;;;;;;;;;-0.40;99.90;;;;;;5083825;28;19947;-70
2022/12/10 00:54:48;;;;;;;;;;;-0.30;99.90;;;;;;5079472;28;20183;-70
2022/12/10 00:57:14;;;;;;;;;;;-0.30;99.90;;;;;;5104004;28;19919;-70
2022/12/10 00:59:41;;;;;;;;;;;-0.30;99.90;;;;;;5085152;28;19983;-70
2022/12/10 01:02:07;;;;;;;;;;;-0.40;99.90;;;;;;5084426;28;19952;-70
2022/12/10 01:04:34;;;;;;;;;;;-0.30;99.90;;;;;;5084613;28;19924;-70
2022/12/10 01:07:01;;;;;;;;;;;-0.40;99.90;;;;;;5083708;28;19921;-71
2022/12/10 01:09:28;;;;;;;;;;;-0.40;99.90;;;;;;5084155;28;19983;-71
2022/12/10 01:11:57;;;;;;;;;;;-0.30;99.90;;;;;;5083999;28;19951;-70
2022/12/10 01:14:25;;;;;;;;;;;-0.30;99.90;;;;;;5084049;28;19952;-70
2022/12/10 01:16:54;;;;;;;;;;;-0.30;99.90;;;;;;5083096;28;19992;-70
2022/12/10 01:19:21;;;;;;;;;;;-0.30;99.90;;;;;;5084045;28;20172;-71
2022/12/10 01:21:50;;;;;;;;;;;-0.30;99.90;;;;;;5083790;28;19943;-70
2022/12/10 01:24:17;;;;;;;;;;;-0.30;99.90;;;;;;5084047;28;19925;-70
2022/12/10 01:26:43;;;;;;;;;;;-0.30;99.90;;;;;;5083416;28;20000;-70
2022/12/10 01:29:12;;;;;;;;;;;-0.40;99.90;;;;;;5084030;28;19959;-70
2022/12/10 01:31:39;;;;;;;;;;;-0.30;99.90;;;;;;5083838;28;19959;-70
2022/12/10 01:34:07;;;;;;;;;;;-0.40;99.90;;;;;;5083685;28;20181;-70
2022/12/10 01:36:35;;;;;;;;;;;-0.30;99.90;;;;;;5082969;28;19920;-71
2022/12/10 01:39:02;;;;;;;;;;;-0.30;99.90;;;;;;5083513;28;19992;-70
2022/12/10 01:41:32;;;;;;;;;;;-0.30;99.90;;;;;;5082052;28;19956;-70
2022/12/10 01:44:01;;;;;;;;;;;-0.30;99.90;;;;;;5083857;28;20176;-70
2022/12/10 01:46:30;;;;;;;;;;;-0.30;99.90;;;;;;5082837;28;19952;-70
2022/12/10 01:48:57;;;;;;;;;;;-0.30;99.90;;;;;;5103709;28;19960;-70
2022/12/10 01:51:24;;;;;;;;;;;-0.20;99.90;;;;;;5100712;28;19959;-70
2022/12/10 01:53:51;;;;;;;;;;;-0.30;99.90;;;;;;5103745;28;20259;-70
2022/12/10 01:56:19;;;;;;;;;;;-0.20;99.90;;;;;;5097827;28;19928;-70
2022/12/10 01:58:46;;;;;;;;;;;-0.20;99.90;;;;;;5083696;28;19951;-71
2022/12/10 02:01:15;;;;;;;;;;;-0.20;99.90;;;;;;5083643;28;19952;-70
2022/12/10 02:03:50;;;;;;;;;;;-0.20;99.90;;;;;;5083661;28;19996;-71
2022/12/10 02:06:22;;;;;;;;;;;-0.20;99.90;;;;;;5082703;28;19920;-70
2022/12/10 02:08:55;;;;;;;;;;;-0.20;99.90;;;;;;5079891;28;19952;-70
2022/12/10 02:11:25;;;;;;;;;;;-0.20;99.90;;;;;;5067359;28;20070;-70
2022/12/10 02:14:00;;;;;;;;;;;-0.20;99.90;;;;;;5083661;28;19936;-70
2022/12/10 02:16:31;;;;;;;;;;;-0.20;99.90;;;;;;5082924;28;19921;-70
2022/12/10 02:19:02;;;;;;;;;;;-0.20;99.90;;;;;;5080665;28;19951;-70
2022/12/10 02:21:31;;;;;;;;;;;-0.20;99.90;;;;;;5082820;28;19951;-70
2022/12/10 02:23:59;;;;;;;;;;;-0.10;99.90;;;;;;5103477;28;19995;-70
2022/12/10 02:26:28;;;;;;;;;;;-0.10;99.90;;;;;;5085719;28;20163;-70
2022/12/10 02:29:06;;;;;;;;;;;-0.20;99.90;;;;;;5083281;28;19952;-71
2022/12/10 02:31:33;;;;;;;;;;;-0.20;99.90;;;;;;5079300;28;19928;-70
2022/12/10 02:34:01;;;;;;;;;;;-0.10;99.90;;;;;;5063196;28;19928;-70
2022/12/10 02:36:29;;;;;;;;;;;-0.20;99.90;;;;;;5061313;28;20287;-70
2022/12/10 02:38:57;;;;;;;;;;;-0.20;99.90;;;;;;5063183;28;19980;-70
2022/12/10 02:41:26;;;;;;;;;;;-0.20;99.90;;;;;;5062868;28;19951;-70
2022/12/10 02:43:54;;;;;;;;;;;-0.10;99.90;;;;;;5063220;28;19928;-71
2022/12/10 02:46:23;;;;;;;;;;;-0.20;99.90;;;;;;5067378;28;19983;-70
2022/12/10 02:48:51;;;;;;;;;;;-0.20;99.90;;;;;;5064799;28;19952;-70
2022/12/10 02:51:17;;;;;;;;;;;-0.20;99.90;;;;;;5063588;28;19964;-70
2022/12/10 02:53:46;;;;;;;;;;;-0.20;99.90;;;;;;5075353;28;20127;-70
2022/12/10 02:56:15;;;;;;;;;;;-0.20;99.90;;;;;;5090881;28;20203;-70
2022/12/10 02:58:48;;;;;;;;;;;-0.20;99.90;;;;;;5086412;28;19963;-70
2022/12/10 03:01:19;;;;;;;;;;;-0.10;99.90;;;;;;5086217;28;19967;-70
2022/12/10 03:03:50;;;;;;;;;;;-0.20;99.90;;;;;;5086267;28;19920;-70
2022/12/10 03:06:19;;;;;;;;;;;-0.20;99.90;;;;;;5085639;28;19921;-70
2022/12/10 03:08:48;;;;;;;;;;;-0.30;99.90;;;;;;5086666;28;19980;-70
2022/12/10 03:11:16;;;;;;;;;;;-0.30;99.90;;;;;;5086430;28;19964;-70
2022/12/10 03:13:48;;;;;;;;;;;-0.30;99.90;;;;;;5086495;28;19955;-70
2022/12/10 03:16:15;;;;;;;;;;;-0.30;99.90;;;;;;5106194;28;19928;-70
2022/12/10 03:18:44;;;;;;;;;;;-0.30;99.90;;;;;;5106898;28;20204;-70
2022/12/10 03:21:12;;;;;;;;;;;-0.30;99.90;;;;;;5106269;28;19920;-70
2022/12/10 03:23:41;;;;;;;;;;;-0.30;99.90;;;;;;5089733;28;19984;-70
2022/12/10 03:26:09;;;;;;;;;;;-0.20;99.90;;;;;;5085683;28;19951;-70
2022/12/10 03:28:38;;;;;;;;;;;-0.20;99.90;;;;;;5086415;28;19955;-71
2022/12/10 03:31:05;;;;;;;;;;;-0.30;99.90;;;;;;5085874;28;19968;-69
2022/12/10 03:33:32;;;;;;;;;;;-0.30;99.90;;;;;;5085953;28;19921;-72
2022/12/10 03:35:59;;;;;;;;;;;-0.30;99.90;;;;;;5085305;28;19952;-69
2022/12/10 03:38:27;;;;;;;;;;;-0.30;99.90;;;;;;5085703;28;20227;-70
2022/12/10 03:40:53;;;;;;;;;;;-0.30;99.90;;;;;;5086182;28;19921;-69
2022/12/10 03:43:22;;;;;;;;;;;-0.30;99.90;;;;;;5086084;28;19952;-71
2022/12/10 03:45:49;;;;;;;;;;;-0.30;99.90;;;;;;5085668;28;19924;-70
2022/12/10 03:48:15;;;;;;;;;;;-0.30;99.90;;;;;;5085402;28;20008;-70
2022/12/10 03:50:42;;;;;;;;;;;-0.20;99.90;;;;;;5082930;28;19920;-70
2022/12/10 03:53:08;;;;;;;;;;;-0.20;99.90;;;;;;5085455;28;19959;-70
2022/12/10 03:55:37;;;;;;;;;;;-0.30;99.90;;;;;;5085449;28;20287;-70
2022/12/10 03:58:04;;;;;;;;;;;-0.30;99.90;;;;;;5085375;28;20086;-70
2022/12/10 04:00:30;;;;;;;;;;;-0.20;99.90;;;;;;5085534;28;19989;-70
2022/12/10 04:02:57;;;;;;;;;;;-0.20;99.90;;;;;;5085815;28;19959;-70
2022/12/10 04:05:24;;;;;;;;;;;-0.20;99.90;;;;;;5085550;28;20166;-70
2022/12/10 04:07:50;;;;;;;;;;;-0.30;99.90;;;;;;5084977;28;19920;-70
2022/12/10 04:10:18;;;;;;;;;;;-0.20;99.90;;;;;;5085225;28;20227;-70
2022/12/10 04:16:26;;;;;;;;;;;-0.20;99.90;;;;;;5085486;28;20179;-70
2022/12/10 04:18:16;;;;;;;;;;;-0.20;99.90;;;;;;5084826;28;19974;-70
2022/12/10 04:28:58;;;;;;;;;;;-0.10;99.90;;;;;;5084732;28;19924;-70
2022/12/10 04:31:24;;;;;;;;;;;-0.10;99.90;;;;;;5084767;28;19995;-70
2022/12/10 04:33:51;;;;;;;;;;;-0.10;99.90;;;;;;5084622;28;19996;-70
2022/12/10 04:36:17;;;;;;;;;;;-0.10;99.90;;;;;;5084151;28;19948;-70
2022/12/10 04:38:44;;;;;;;;;;;-0.10;99.90;;;;;;5084826;28;20235;-71
2022/12/10 04:41:15;;;;;;;;;;;-0.10;99.90;;;;;;5084862;28;19987;-70
2022/12/10 04:43:42;;;;;;;;;;;-0.20;99.90;;;;;;5084622;28;20216;-70
2022/12/10 04:46:10;;;;;;;;;;;-0.20;99.90;;;;;;5084070;28;19921;-70
2022/12/10 04:48:37;;;;;;;;;;;-0.20;99.90;;;;;;5084712;28;20175;-70
2022/12/10 04:51:03;;;;;;;;;;;-0.10;99.90;;;;;;5081634;28;19979;-71
2022/12/10 04:53:30;;;;;;;;;;;-0.10;99.90;;;;;;5084285;28;20187;-71
2022/12/10 04:55:57;;;;;;;;;;;-0.20;99.90;;;;;;5083898;28;19927;-71
2022/12/10 04:58:24;;;;;;;;;;;-0.10;99.90;;;;;;5084137;28;19960;-71
2022/12/10 05:00:50;;;;;;;;;;;-0.20;99.90;;;;;;5084175;28;19992;-70
2022/12/10 05:03:18;;;;;;;;;;;-0.20;99.90;;;;;;5084492;28;19956;-70
2022/12/10 05:05:45;;;;;;;;;;;-0.10;99.90;;;;;;5083698;28;19955;-70
2022/12/10 05:08:11;;;;;;;;;;;-0.10;99.90;;;;;;5083940;28;19921;-70
2022/12/10 05:10:38;;;;;;;;;;;0.00;99.90;;;;;;5084063;28;19952;-70
2022/12/10 05:13:05;;;;;;;;;;;-0.10;99.90;;;;;;5083783;28;20240;-70
2022/12/10 05:15:31;;;;;;;;;;;-0.10;99.90;;;;;;5084251;28;19967;-70
2022/12/10 05:17:58;;;;;;;;;;;-0.20;99.90;;;;;;5083459;28;19956;-70
2022/12/10 05:20:26;;;;;;;;;;;-0.20;99.90;;;;;;5083772;28;19976;-71
2022/12/10 05:25:52;;;;;;;;;;;-0.20;99.90;;;;;;5083845;28;19939;-70
2022/12/10 05:28:19;;;;;;;;;;;-0.20;99.90;;;;;;5083501;28;19926;-71
2022/12/10 05:30:45;;;;;;;;;;;-0.20;99.90;;;;;;5083773;28;20538;-70
2022/12/10 05:33:12;;;;;;;;;;;-0.30;99.90;;;;;;5083931;28;19959;-72
2022/12/10 05:35:40;;;;;;;;;;;-0.30;99.90;;;;;;5083706;28;19948;-70
2022/12/10 05:38:07;;;;;;;;;;;-0.30;99.90;;;;;;5083577;28;19952;-70
2022/12/10 05:40:35;;;;;;;;;;;-0.40;99.90;;;;;;5083858;28;19920;-71
2022/12/10 05:43:01;;;;;;;;;;;-0.40;99.90;;;;;;5083956;28;20167;-70
2022/12/10 05:45:28;;;;;;;;;;;-0.40;99.90;;;;;;5083514;28;19958;-70
2022/12/10 05:47:54;;;;;;;;;;;-0.40;99.90;;;;;;5083042;28;19959;-70
2022/12/10 05:50:21;;;;;;;;;;;-0.40;99.90;;;;;;5083424;28;19982;-71
2022/12/10 05:52:50;;;;;;;;;;;-0.40;99.90;;;;;;5083550;28;19991;-70
2022/12/10 05:55:17;;;;;;;;;;;-0.40;99.90;;;;;;5083448;28;19920;-70
2022/12/10 05:57:44;;;;;;;;;;;-0.40;99.90;;;;;;5083102;28;19948;-71
2022/12/10 06:00:11;;;;;;;;;;;-0.40;99.90;;;;;;5083561;28;20179;-70
2022/12/10 06:02:38;;;;;;;;;;;-0.40;99.90;;;;;;5083293;28;19987;-70
2022/12/10 06:05:07;;;;;;;;;;;-0.40;99.90;;;;;;5081074;28;19987;-70
2022/12/10 06:07:34;;;;;;;;;;;-0.40;99.90;;;;;;5083435;28;19920;-70
2022/12/10 06:10:01;;;;;;;;;;;-0.40;99.90;;;;;;5083538;28;19943;-70
2022/12/10 06:12:28;;;;;;;;;;;-0.40;99.90;;;;;;5083435;28;19987;-70
2022/12/10 06:14:55;;;;;;;;;;;-0.40;99.90;;;;;;5080583;28;20331;-70
2022/12/10 06:17:21;;;;;;;;;;;-0.40;99.90;;;;;;5082818;28;19987;-70
2022/12/10 06:19:48;;;;;;;;;;;-0.40;99.90;;;;;;5083293;28;19970;-70
2022/12/10 06:22:15;;;;;;;;;;;-0.40;99.90;;;;;;5083302;28;19999;-70
2022/12/10 06:24:41;;;;;;;;;;;-0.40;99.90;;;;;;5086686;28;19952;-70
2022/12/10 06:27:09;;;;;;;;;;;-0.40;99.90;;;;;;5086581;28;19931;-70
2022/12/10 06:29:37;;;;;;;;;;;-0.40;99.90;;;;;;5084796;28;19992;-69
2022/12/10 06:32:04;;;;;;;;;;;-0.40;99.90;;;;;;5087280;28;19960;-68
2022/12/10 06:34:30;;;;;;;;;;;-0.40;99.90;;;;;;5101796;28;20179;-69
2022/12/10 06:36:57;;;;;;;;;;;-0.40;99.90;;;;;;5106929;28;19920;-71
2022/12/10 06:39:24;;;;;;;;;;;-0.40;99.90;;;;;;5107583;28;19947;-69
2022/12/10 06:41:50;;;;;;;;;;;-0.40;99.90;;;;;;5100433;28;20252;-70
2022/12/10 06:44:18;;;;;;;;;;;-0.10;99.90;;;;;;5086862;28;20223;-69
2022/12/10 06:46:52;;;;;;;;;;;-0.40;99.90;;;;;;5083351;28;20224;-69
2022/12/10 06:49:18;;;;;;;;;;;-0.40;99.90;;;;;;5086622;28;19927;-70
2022/12/10 06:51:45;;;;;;;;;;;-0.40;99.90;;;;;;5086489;28;19952;-70
2022/12/10 06:54:15;;;;;;;;;;;-0.40;99.90;;;;;;5078533;28;19991;-70
2022/12/10 06:56:41;;;;;;;;;;;-0.40;99.90;;;;;;5085675;28;19991;-70
2022/12/10 06:59:08;;;;;;;;;;;-0.40;99.90;;;;;;5106314;28;19952;-70
2022/12/10 07:01:38;;;;;;;;;;;-0.40;99.90;;;;;;5106541;28;19983;-70
2022/12/10 07:04:05;;;;;;;;;;;-0.40;99.90;;;;;;5105589;28;19955;-69
2022/12/10 07:06:38;;;;;;;;;;;-0.40;99.90;;;;;;5103621;28;19955;-70
2022/12/10 07:09:05;;;;;;;;;;;-0.40;99.90;;;;;;5095787;28;19987;-69
2022/12/10 07:11:32;;;;;;;;;;;-0.40;99.90;;;;;;5086668;28;19928;-70
2022/12/10 07:13:59;;;;;;;;;;;-0.50;99.90;;;;;;5086500;28;20153;-70
2022/12/10 07:16:26;;;;;;;;;;;-0.50;99.90;;;;;;5086023;28;19963;-72
2022/12/10 07:18:55;;;;;;;;;;;-0.50;99.90;;;;;;5086263;28;20123;-68
2022/12/10 07:21:22;;;;;;;;;;;-0.60;99.90;;;;;;5086104;28;19927;-70
2022/12/10 07:23:49;;;;;;;;;;;-0.50;99.90;;;;;;5087752;28;19920;-70
2022/12/10 07:26:16;;;;;;;;;;;-0.50;99.90;;;;;;5105667;28;19987;-70
2022/12/10 07:28:42;;;;;;;;;;;-0.60;99.90;;;;;;5106547;28;19927;-70
2022/12/10 07:31:10;;;;;;;;;;;-0.50;99.90;;;;;;5106397;28;19983;-70
2022/12/10 07:33:37;;;;;;;;;;;-0.50;99.90;;;;;;5105916;28;20255;-70
2022/12/10 07:36:06;;;;;;;;;;;-0.50;99.90;;;;;;5105873;28;19979;-70
2022/12/10 07:38:32;;;;;;;;;;;-0.60;99.90;;;;;;5106060;28;19940;-70
2022/12/10 07:41:02;;;;;;;;;;;-0.60;99.90;;;;;;5105928;28;19926;-70
2022/12/10 07:43:29;;;;;;;;;;;-0.60;99.90;;;;;;5106418;28;19992;-70
2022/12/10 07:45:56;;;;;;;;;;;-0.60;99.90;;;;;;5105581;28;19928;-71
2022/12/10 07:48:22;;;;;;;;;;;-0.60;99.90;;;;;;5088965;28;19963;-70
2022/12/10 07:50:56;;;;;;;;;;;-0.60;99.90;;;;;;5085694;28;19962;-70
2022/12/10 07:53:24;;;;;;;;;;;-0.60;99.90;;;;;;5085872;28;19964;-70
2022/12/10 07:55:51;;;;;;;;;;;-0.60;99.90;;;;;;5085377;28;19921;-69
2022/12/10 07:58:17;;;;;;;;;;;-0.50;99.90;;;;;;5085401;28;20173;-69
2022/12/10 08:00:44;;;;;;;;;;;-0.50;99.90;;;;;;5085582;28;19956;-69
2022/12/10 08:03:11;;;;;;;;;;;-0.50;99.90;;;;;;5085593;28;19924;-69
2022/12/10 08:05:39;;;;;;;;;;;-0.50;99.90;;;;;;5082554;28;20258;-69
2022/12/10 08:08:06;;;;;;;;;;;-0.50;99.90;;;;;;5085251;28;19952;-69
2022/12/10 08:10:35;;;;;;;;;;;-0.50;99.90;;;;;;5085235;28;19943;-69
2022/12/10 08:13:03;;;;;;;;;;;-0.50;99.90;;;;;;5085026;28;19995;-69
2022/12/10 08:15:30;;;;;;;;;;;-0.40;99.90;;;;;;5085248;28;20149;-69
2022/12/10 08:17:56;;;;;;;;;;;-0.40;99.90;;;;;;5084463;28;19940;-69
2022/12/10 08:20:24;;;;;;;;;;;-0.40;99.90;;;;;;5085088;28;19924;-69
2022/12/10 08:22:51;;;;;;;;;;;-0.40;99.90;;;;;;5085217;28;19969;-69
2022/12/10 08:25:17;;;;;;;;;;;-0.40;99.90;;;;;;5085174;28;19951;-69
2022/12/10 08:27:44;;;;;;;;;;;-0.30;99.90;;;;;;5084576;28;20171;-69
2022/12/10 08:30:12;;;;;;;;;;;-0.30;99.90;;;;;;5085109;28;20111;-69
2022/12/10 08:32:39;;;;;;;;;;;-0.20;99.90;;;;;;5085115;28;19967;-69
2022/12/10 08:35:06;;;;;;;;;;;-0.20;99.90;;;;;;5085066;28;19952;-69
2022/12/10 08:37:33;;;;;;;;;;;-0.20;99.90;;;;;;5083336;28;19920;-69
2022/12/10 08:40:00;;;;;;;;;;;-0.20;99.90;;;;;;5084940;28;19927;-69
2022/12/10 08:42:26;;;;;;;;;;;-0.30;99.90;;;;;;5084535;28;19959;-69
2022/12/10 08:44:53;;;;;;;;;;;-0.30;99.90;;;;;;5084855;28;19947;-68
2022/12/10 08:47:21;;;;;;;;;;;-0.30;99.90;;;;;;5082098;28;19952;-69
2022/12/10 08:49:48;;;;;;;;;;;-0.40;99.90;;;;;;5084656;28;20368;-69
2022/12/10 08:52:14;;;;;;;;;;;-0.30;99.90;;;;;;5084676;28;19955;-70
2022/12/10 08:54:41;;;;;;;;;;;-0.30;99.90;;;;;;5084593;28;19928;-69
2022/12/10 08:57:08;;;;;;;;;;;-0.30;99.90;;;;;;5083755;28;19936;-69
2022/12/10 08:59:34;;;;;;;;;;;-0.30;99.90;;;;;;5084058;28;19944;-69
2022/12/10 09:02:01;;;;;;;;;;;-0.30;99.90;;;;;;5083937;28;20259;-70
2022/12/10 09:04:29;;;;;;;;;;;-0.30;99.90;;;;;;5084235;28;20343;-70
2022/12/10 09:06:56;;;;;;;;;;;-0.40;99.90;;;;;;5083466;28;20403;-69
2022/12/10 09:09:22;;;;;;;;;;;-0.40;99.90;;;;;;5084439;28;19948;-69
2022/12/10 09:11:49;;;;;;;;;;;-0.40;99.90;;;;;;5083984;28;19959;-69
2022/12/10 09:14:16;;;;;;;;;;;-0.40;99.90;;;;;;5084296;28;19956;-69
2022/12/10 09:16:42;;;;;;;;;;;-0.40;99.90;;;;;;5083361;28;20092;-69
2022/12/10 09:19:09;;;;;;;;;;;-0.30;99.90;;;;;;5083908;28;19956;-69
2022/12/10 09:21:37;;;;;;;;;;;-0.30;99.90;;;;;;5084261;28;19952;-70
2022/12/10 09:24:04;;;;;;;;;;;-0.30;99.90;;;;;;5084164;28;19952;-69
2022/12/10 09:26:31;;;;;;;;;;;-0.30;99.90;;;;;;5083166;28;19920;-69
2022/12/10 09:28:59;;;;;;;;;;;-0.30;99.90;;;;;;5083574;28;19921;-69
2022/12/10 09:31:26;;;;;;;;;;;-0.30;99.90;;;;;;5083488;28;19920;-72
2022/12/10 09:33:53;;;;;;;;;;;-0.30;99.90;;;;;;5083594;28;19960;-69
2022/12/10 09:36:21;;;;;;;;;;;-0.30;99.90;;;;;;5082940;28;19925;-70
2022/12/10 09:38:49;;;;;;;;;;;-0.20;99.90;;;;;;5083913;28;19984;-69
2022/12/10 09:41:28;;;;;;;;;;;-0.20;99.90;;;;;;5083532;28;19963;-69
2022/12/10 09:43:59;;;;;;;;;;;-0.20;99.90;;;;;;5083773;28;19935;-69
2022/12/10 09:46:32;;;;;;;;;;;-0.20;99.90;;;;;;5081534;28;19985;-69
2022/12/10 09:49:03;;;;;;;;;;;-0.20;99.90;;;;;;5083236;28;19964;-69
2022/12/10 09:51:31;;;;;;;;;;;-0.20;99.90;;;;;;5083706;28;19951;-69
2022/12/10 09:54:00;;;;;;;;;;;-0.20;99.90;;;;;;5083388;28;19991;-70
2022/12/10 09:56:29;;;;;;;;;;;-0.20;99.90;;;;;;5082836;28;19920;-69
2022/12/10 09:58:56;;;;;;;;;;;-0.20;99.90;;;;;;5083536;28;19956;-70
2022/12/10 10:01:25;;;;;;;;;;;-0.20;99.90;;;;;;5083181;28;19959;-70
2022/12/10 10:03:53;;;;;;;;;;;-0.20;99.90;;;;;;5083238;28;19979;-69
2022/12/10 10:06:28;;;;;;;;;;;-0.20;99.90;;;;;;5082903;28;19971;-69
2022/12/10 10:08:57;;;;;;;;;;;-0.20;99.90;;;;;;5083673;28;19921;-69
2022/12/10 10:11:28;;;;;;;;;;;-0.10;99.90;;;;;;5083160;28;19987;-70
2022/12/10 10:13:57;;;;;;;;;;;-0.10;99.90;;;;;;5083292;28;19964;-69
2022/12/10 10:16:25;;;;;;;;;;;-0.10;99.90;;;;;;5082934;28;19928;-68
2022/12/10 10:18:55;;;;;;;;;;;-0.10;99.90;;;;;;5083386;28;19927;-69
2022/12/10 10:21:23;;;;;;;;;;;-0.10;99.90;;;;;;5083483;28;19955;-69
2022/12/10 10:23:50;;;;;;;;;;;0.00;99.90;;;;;;5083464;28;19980;-71
2022/12/10 10:26:17;;;;;;;;;;;0.00;99.90;;;;;;5082365;28;19990;-69
2022/12/10 10:28:45;;;;;;;;;;;0.10;99.90;;;;;;5083479;28;19928;-70
2022/12/10 10:31:16;;;;;;;;;;;0.20;99.90;;;;;;5083384;28;19963;-69
2022/12/10 10:33:48;;;;;;;;;;;0.30;99.90;;;;;;5083251;28;19927;-69
2022/12/10 10:36:15;;;;;;;;;;;0.30;99.90;;;;;;5082311;28;19921;-69
2022/12/10 10:38:47;;;;;;;;;;;0.40;99.90;;;;;;5083307;28;19996;-70
2022/12/10 10:41:15;;;;;;;;;;;0.40;99.90;;;;;;5083292;28;19948;-69
2022/12/10 10:43:44;;;;;;;;;;;0.40;99.90;;;;;;5082927;28;19960;-69
2022/12/10 10:46:14;;;;;;;;;;;0.50;99.90;;;;;;5081322;28;20553;-69
2022/12/10 10:48:40;;;;;;;;;;;0.50;99.90;;;;;;5083190;28;19983;-69
2022/12/10 10:51:08;;;;;;;;;;;0.60;99.90;;;;;;5082788;28;19984;-69
2022/12/10 10:53:41;;;;;;;;;;;0.60;99.90;;;;;;5083116;28;19971;-70
2022/12/10 10:56:10;;;;;;;;;;;0.60;99.90;;;;;;5082455;28;20144;-69
2022/12/10 10:58:39;;;;;;;;;;;0.70;99.90;;;;;;5082935;28;20235;-69
2022/12/10 11:01:07;;;;;;;;;;;0.70;99.90;;;;;;5083006;28;19995;-69
2022/12/10 11:03:36;;;;;;;;;;;0.70;99.90;;;;;;5083132;28;19956;-69
2022/12/10 11:06:05;;;;;;;;;;;0.70;99.90;;;;;;5079698;28;19951;-69
2022/12/10 11:08:32;;;;;;;;;;;0.70;99.90;;;;;;5082798;28;20232;-69
2022/12/10 11:11:02;;;;;;;;;;;0.60;99.90;;;;;;5086271;28;19956;-69
2022/12/10 11:13:29;;;;;;;;;;;0.60;99.90;;;;;;5086820;28;19970;-69
2022/12/10 11:15:57;;;;;;;;;;;0.60;99.90;;;;;;5086021;28;19991;-69
2022/12/10 11:18:26;;;;;;;;;;;0.50;99.90;;;;;;5086117;28;19956;-69
2022/12/10 11:21:02;;;;;;;;;;;0.50;99.90;;;;;;5086218;28;19920;-69
2022/12/10 11:23:29;;;;;;;;;;;0.60;99.90;;;;;;5086470;28;19959;-68
2022/12/10 11:25:59;;;;;;;;;;;0.60;99.90;;;;;;5086035;28;19928;-68
2022/12/10 11:28:33;;;;;;;;;;;0.60;99.90;;;;;;5086144;28;19987;-68
2022/12/10 11:31:07;;;;;;;;;;;0.70;99.90;;;;;;5086313;28;19984;-68
2022/12/10 11:33:37;;;;;;;;;;;0.70;99.90;;;;;;5086330;28;19960;-68
2022/12/10 11:36:12;;;;;;;;;;;0.70;99.90;;;;;;5085258;28;19955;-68
2022/12/10 11:38:44;;;;;;;;;;;0.70;99.90;;;;;;5086380;28;19951;-67
2022/12/10 11:41:14;;;;;;;;;;;0.70;99.90;;;;;;5086057;28;20208;-68
2022/12/10 11:43:45;;;;;;;;;;;0.70;99.90;;;;;;5086003;28;19920;-67
2022/12/10 11:46:30;;;;;;;;;;;0.70;99.90;;;;;;5085316;28;19952;-66
2022/12/10 11:49:04;;;;;;;;;;;0.70;99.90;;;;;;5085888;28;20262;-68
2022/12/10 11:51:35;;;;;;;;;;;0.70;99.90;;;;;;5085896;28;19920;-68
2022/12/10 11:54:07;;;;;;;;;;;0.70;99.90;;;;;;5085902;28;19920;-68
2022/12/10 11:56:36;;;;;;;;;;;0.70;99.90;;;;;;5084407;28;19951;-68
2022/12/10 11:59:09;;;;;;;;;;;0.60;99.90;;;;;;5085865;28;19952;-68
2022/12/10 12:01:54;;;;;;;;;;;0.70;99.90;;;;;;5085891;28;19920;-68
2022/12/10 12:04:33;;;;;;;;;;;0.70;99.90;;;;;;5064836;28;19921;-68
2022/12/10 12:07:15;;;;;;;;;;;0.70;99.90;;;;;;5084916;28;19931;-68
2022/12/10 12:09:48;;;;;;;;;;;0.70;99.90;;;;;;5085715;28;19925;-68
2022/12/10 12:12:22;;;;;;;;;;;0.70;99.90;;;;;;5084818;28;19920;-68
2022/12/10 12:14:51;;;;;;;;;;;0.80;99.90;;;;;;5085053;28;19944;-67
2022/12/10 12:17:21;;;;;;;;;;;0.70;99.90;;;;;;5084203;28;19921;-66
2022/12/10 12:19:51;;;;;;;;;;;0.70;99.90;;;;;;5082166;28;19983;-66
2022/12/10 12:22:24;;;;;;;;;;;0.70;99.90;;;;;;5103022;28;20270;-67
2022/12/10 12:24:54;;;;;;;;;;;0.70;99.90;;;;;;5104571;28;19927;-67
2022/12/10 12:27:33;;;;;;;;;;;0.80;99.90;;;;;;5101676;28;19921;-70
2022/12/10 12:30:06;;;;;;;;;;;0.90;99.90;;;;;;5085314;28;19928;-67
2022/12/10 12:32:36;;;;;;;;;;;0.90;99.90;;;;;;5085088;28;19921;-67
2022/12/10 12:35:06;;;;;;;;;;;0.90;99.90;;;;;;5085102;28;19928;-68
2022/12/10 12:37:37;;;;;;;;;;;0.90;99.90;;;;;;5084112;28;19962;-68
2022/12/10 12:40:10;;;;;;;;;;;0.90;99.90;;;;;;5084706;28;19927;-66
2022/12/10 12:42:41;;;;;;;;;;;0.90;99.90;;;;;;5084462;28;19926;-67
2022/12/10 12:45:11;;;;;;;;;;;0.90;99.90;;;;;;5084890;28;20096;-69
2022/12/10 12:47:41;;;;;;;;;;;0.90;99.90;;;;;;5084191;28;19921;-68
2022/12/10 12:50:12;;;;;;;;;;;1.00;99.90;;;;;;5084670;28;19928;-68
2022/12/10 12:52:44;;;;;;;;;;;1.00;99.90;;;;;;5084556;28;19920;-68
2022/12/10 12:55:16;;;;;;;;;;;1.00;99.90;;;;;;5084300;28;20254;-68
2022/12/10 12:57:45;;;;;;;;;;;1.00;99.90;;;;;;5084075;28;19987;-68
2022/12/10 13:00:17;;;;;;;;;;;1.00;99.90;;;;;;5084453;28;19991;-68
2022/12/10 13:02:52;;;;;;;;;;;1.00;99.90;;;;;;5084722;28;19991;-69
2022/12/10 13:05:24;;;;;;;;;;;1.00;99.90;;;;;;5084126;28;20180;-69
2022/12/10 13:08:09;;;;;;;;;;;0.90;99.90;;;;;;5084014;28;19956;-69
2022/12/10 13:10:46;;;;;;;;;;;1.00;99.90;;;;;;5084347;28;19940;-69
2022/12/10 13:13:28;;;;;;;;;;;1.00;99.90;;;;;;5084145;28;19943;-69
2022/12/10 13:15:55;;;;;;;;;;;1.00;99.90;;;;;;5082581;28;19964;-69
2022/12/10 13:18:34;;;;;;;;;;;1.00;99.90;;;;;;5084019;28;19967;-69
2022/12/10 13:21:15;;;;;;;;;;;0.90;99.90;;;;;;5080137;28;19921;-68
2022/12/10 13:23:49;;;;;;;;;;;0.90;99.90;;;;;;5082055;28;19959;-68
2022/12/10 13:26:25;;;;;;;;;;;0.90;99.90;;;;;;5083089;28;19927;-71
2022/12/10 13:28:54;;;;;;;;;;;0.90;99.90;;;;;;5083738;28;19963;-68
2022/12/10 13:31:23;;;;;;;;;;;0.90;99.90;;;;;;5083861;28;19920;-68
2022/12/10 13:33:52;;;;;;;;;;;0.90;99.90;;;;;;5083698;28;19992;-69
2022/12/10 13:36:24;;;;;;;;;;;0.90;99.90;;;;;;5083803;28;20100;-68
2022/12/10 13:38:59;;;;;;;;;;;0.90;99.90;;;;;;5084034;28;19920;-69
2022/12/10 13:44:30;;;;;;;;;;;0.80;99.90;;;;;;5083814;28;19927;-69
2022/12/10 13:46:58;;;;;;;;;;;0.90;99.90;;;;;;5063240;28;19991;-69
2022/12/10 13:49:27;;;;;;;;;;;0.90;99.90;;;;;;5063758;28;19920;-69
2022/12/10 13:51:56;;;;;;;;;;;0.90;99.90;;;;;;5063618;28;20323;-69
2022/12/10 13:54:38;;;;;;;;;;;0.90;99.90;;;;;;5063637;28;19974;-69
2022/12/10 13:57:12;;;;;;;;;;;0.90;99.90;;;;;;5081495;28;20151;-69
2022/12/10 13:59:43;;;;;;;;;;;1.00;99.90;;;;;;5083858;28;19920;-70
2022/12/10 14:02:21;;;;;;;;;;;1.00;99.90;;;;;;5084010;28;19952;-69
2022/12/10 14:04:59;;;;;;;;;;;1.00;99.90;;;;;;5083488;28;19956;-69
2022/12/10 14:07:27;;;;;;;;;;;1.10;99.90;;;;;;5083175;28;19930;-69
2022/12/10 14:09:55;;;;;;;;;;;1.10;99.90;;;;;;5083180;28;19940;-69
2022/12/10 14:12:26;;;;;;;;;;;1.10;99.90;;;;;;5083357;28;19921;-69
2022/12/10 14:14:55;;;;;;;;;;;1.00;99.90;;;;;;5083462;28;20090;-69
2022/12/10 14:17:24;;;;;;;;;;;1.10;99.90;;;;;;5083084;28;19971;-69
2022/12/10 14:19:54;;;;;;;;;;;1.10;99.90;;;;;;5083181;28;20477;-69
2022/12/10 14:22:23;;;;;;;;;;;1.10;99.90;;;;;;5083420;28;19924;-69
2022/12/10 14:24:50;;;;;;;;;;;1.10;99.90;;;;;;5082998;28;19952;-68
2022/12/10 14:27:18;;;;;;;;;;;1.00;99.90;;;;;;5082481;28;19944;-68
2022/12/10 14:29:47;;;;;;;;;;;1.00;99.90;;;;;;5082870;28;20112;-68
2022/12/10 14:32:15;;;;;;;;;;;1.00;99.90;;;;;;5083054;28;19920;-68
2022/12/10 14:34:42;;;;;;;;;;;0.90;99.90;;;;;;5080267;28;19920;-68
2022/12/10 14:37:13;;;;;;;;;;;0.90;99.90;;;;;;5082742;28;19951;-68
2022/12/10 14:39:40;;;;;;;;;;;0.90;99.90;;;;;;5083350;28;19920;-67
2022/12/10 14:42:07;;;;;;;;;;;0.90;99.90;;;;;;5083416;28;19948;-68
2022/12/10 14:44:38;;;;;;;;;;;0.90;99.90;;;;;;5063997;28;19952;-68
2022/12/10 14:47:12;;;;;;;;;;;0.90;99.90;;;;;;5082225;28;19920;-68